Time;durP1;ratioP1;P1;durP2;ratioP2;P2;SDS_P1;SDS_P2;PMS_P1;PMS_P2;Temp;Humidity;BMP_temperature;BMP_pressure;BME280_temperature;BME280_humidity;BME280_pressure;Samples;Min_cycle;Max_cycle;Signal;HPM_P1;HPM_P2
2023/01/09 00:01:36;;;;;;;8.35;3.40;;;8.80;1.00;;;;;;5091227;28;20382;-54
2023/01/09 00:04:02;;;;;;;8.18;3.40;;;9.80;1.00;;;;;;5089658;28;20371;-54
2023/01/09 00:06:27;;;;;;;8.48;3.30;;;8.90;1.00;;;;;;5091189;28;20374;-54
2023/01/09 00:08:53;;;;;;;7.90;3.50;;;8.80;1.00;;;;;;5091184;28;20409;-54
2023/01/09 00:11:19;;;;;;;7.10;2.90;;;8.80;1.00;;;;;;5090001;28;20554;-52
2023/01/09 00:13:46;;;;;;;7.15;2.97;;;8.80;1.00;;;;;;5090488;28;20366;-52
2023/01/09 00:16:12;;;;;;;7.40;2.60;;;8.80;1.00;;;;;;5090666;28;20426;-51
2023/01/09 00:18:38;;;;;;;7.03;2.70;;;8.80;1.00;;;;;;5091256;28;20373;-51
2023/01/09 00:21:06;;;;;;;9.82;3.22;;;8.80;1.00;;;;;;5090541;28;20378;-54
2023/01/09 00:23:32;;;;;;;6.70;2.40;;;8.70;1.00;;;;;;5072953;28;20390;-51
2023/01/09 00:26:18;;;;;;;6.23;2.60;;;8.60;1.00;;;;;;5090090;28;20382;-55
2023/01/09 00:28:45;;;;;;;6.97;2.67;;;8.60;1.00;;;;;;5090198;28;20406;-54
2023/01/09 00:31:12;;;;;;;5.88;2.38;;;8.70;1.00;;;;;;5089703;28;20680;-54
2023/01/09 00:33:58;;;;;;;6.57;2.60;;;8.80;1.00;;;;;;5072971;28;20378;-54
2023/01/09 00:36:24;;;;;;;7.65;3.05;;;8.80;1.00;;;;;;5091077;28;20397;-54
2023/01/09 00:38:50;;;;;;;5.93;2.13;;;8.80;1.00;;;;;;5090017;28;20385;-54
2023/01/09 00:41:21;;;;;;;9.32;3.95;;;8.90;1.00;;;;;;5089526;28;20378;-54
2023/01/09 00:43:52;;;;;;;8.13;3.30;;;8.90;1.00;;;;;;5090939;28;20827;-53
2023/01/09 00:46:23;;;;;;;7.55;2.70;;;8.80;1.00;;;;;;5089829;28;20401;-51
2023/01/09 00:48:49;;;;;;;6.88;2.35;;;8.60;1.00;;;;;;5089979;28;20562;-51
2023/01/09 00:51:18;;;;;;;7.25;2.50;;;8.60;1.00;;;;;;5089645;28;20468;-52
2023/01/09 00:53:44;;;;;;;5.50;2.10;;;8.60;1.00;;;;;;5090985;28;20394;-51
2023/01/09 00:56:14;;;;;;;5.40;1.60;;;9.90;1.00;;;;;;5089781;28;20831;-53
2023/01/09 00:58:40;;;;;;;5.18;1.90;;;8.60;1.00;;;;;;5090363;28;20366;-52
2023/01/09 01:01:06;;;;;;;5.80;1.90;;;8.70;1.00;;;;;;5089674;28;20370;-51
2023/01/09 01:03:32;;;;;;;6.60;2.40;;;8.70;1.00;;;;;;5090514;28;20389;-54
2023/01/09 01:08:41;;;;;;;5.40;1.67;;;8.70;1.00;;;;;;5089825;28;20413;-54
2023/01/09 01:11:09;;;;;;;5.47;1.90;;;8.70;1.00;;;;;;5089601;28;20386;-52
2023/01/09 01:13:36;;;;;;;6.32;1.52;;;8.70;1.00;;;;;;5090329;28;20453;-52
2023/01/09 01:16:06;;;;;;;4.67;1.27;;;10.30;1.00;;;;;;5088218;28;20410;-53
2023/01/09 01:18:32;;;;;;;5.75;1.55;;;8.60;1.00;;;;;;5089954;28;20386;-51
2023/01/09 01:20:58;;;;;;;4.80;1.30;;;8.60;1.00;;;;;;5090004;28;20370;-52
2023/01/09 01:23:24;;;;;;;5.15;1.30;;;8.70;1.00;;;;;;5090043;28;20374;-52
2023/01/09 01:25:49;;;;;;;4.60;1.00;;;8.80;1.00;;;;;;5090037;28;20455;-52
2023/01/09 01:28:15;;;;;;;5.43;1.35;;;8.50;1.00;;;;;;5089160;28;20405;-51
2023/01/09 01:30:42;;;;;;;4.63;0.90;;;8.90;1.00;;;;;;5089504;28;20404;-51
2023/01/09 01:33:09;;;;;;;4.13;1.00;;;9.80;1.00;;;;;;5089566;28;20427;-52
2023/01/09 01:35:36;;;;;;;4.00;0.88;;;9.00;1.00;;;;;;5089667;28;20410;-52
2023/01/09 01:38:01;;;;;;;4.80;1.10;;;8.70;99.90;;;;;;5089692;28;20870;-52
2023/01/09 01:40:28;;;;;;;4.50;0.90;;;8.70;99.90;;;;;;5089948;28;20377;-51
2023/01/09 01:42:54;;;;;;;5.13;0.95;;;8.70;99.90;;;;;;5089818;28;20398;-52
2023/01/09 01:45:23;;;;;;;4.68;0.93;;;8.70;1.00;;;;;;5088882;28;20700;-52
2023/01/09 01:47:58;;;;;;;4.60;0.70;;;8.60;99.90;;;;;;5089655;28;20543;-51
2023/01/09 01:50:32;;;;;;;3.85;0.63;;;8.60;99.90;;;;;;5089629;28;20466;-51
2023/01/09 01:53:18;;;;;;;4.00;0.80;;;8.60;99.90;;;;;;5089490;28;20401;-51
2023/01/09 01:55:59;;;;;;;4.00;0.80;;;8.60;1.00;;;;;;5089956;28;20398;-51
2023/01/09 01:58:26;;;;;;;4.15;0.75;;;8.50;1.00;;;;;;5090109;28;20876;-51
2023/01/09 02:00:51;;;;;;;4.10;0.70;;;8.50;1.00;;;;;;5089130;28;20378;-51
2023/01/09 02:03:21;;;;;;;4.60;0.85;;;8.50;99.90;;;;;;5089243;28;20878;-51
2023/01/09 02:05:48;;;;;;;4.72;0.80;;;8.50;1.00;;;;;;5090082;28;20389;-52
2023/01/09 02:08:13;;;;;;;4.40;1.00;;;8.70;1.00;;;;;;5088922;28;20421;-51
2023/01/09 02:10:40;;;;;;;4.30;0.80;;;10.00;99.90;;;;;;5089223;28;20810;-51
2023/01/09 02:13:08;;;;;;;4.87;0.70;;;8.70;99.90;;;;;;5088641;28;20836;-52
2023/01/09 02:16:06;;;;;;;4.97;0.88;;;8.70;99.90;;;;;;5089613;28;20378;-52
2023/01/09 02:18:47;;;;;;;3.90;0.75;;;8.80;99.90;;;;;;5090163;28;20378;-55
2023/01/09 02:21:21;;;;;;;4.53;0.55;;;9.30;99.90;;;;;;5088617;28;20409;-54
2023/01/09 02:24:27;;;;;;;3.80;0.60;;;8.80;99.90;;;;;;5089526;28;20421;-54
2023/01/09 02:27:00;;;;;;;4.30;0.70;;;8.80;99.90;;;;;;5071482;28;20393;-54
2023/01/09 02:29:45;;;;;;;3.95;0.60;;;8.80;99.90;;;;;;5093066;28;20442;-54
2023/01/09 02:32:34;;;;;;;4.47;0.75;;;8.90;99.90;;;;;;5076679;28;20384;-55
2023/01/09 02:34:59;;;;;;;4.00;0.63;;;8.80;99.90;;;;;;5071762;28;20403;-54
2023/01/09 02:37:59;;;;;;;4.50;0.70;;;8.90;99.90;;;;;;5072371;28;20713;-55
2023/01/09 02:40:34;;;;;;;3.70;0.57;;;8.80;99.90;;;;;;5071641;28;20819;-52
2023/01/09 02:43:01;;;;;;;3.80;0.80;;;8.70;99.90;;;;;;5072204;28;20716;-56
2023/01/09 02:45:26;;;;;;;3.70;0.50;;;8.70;99.90;;;;;;5072390;28;20434;-53
2023/01/09 02:47:52;;;;;;;3.65;0.40;;;9.70;99.90;;;;;;5072343;28;20766;-53
2023/01/09 02:50:49;;;;;;;3.87;0.50;;;8.60;99.90;;;;;;5071257;28;20761;-51
2023/01/09 02:53:33;;;;;;;3.97;0.50;;;8.50;99.90;;;;;;5040123;28;20748;-52
2023/01/09 02:56:04;;;;;;;4.10;0.50;;;8.50;99.90;;;;;;5071863;28;20381;-51
2023/01/09 02:58:51;;;;;;;3.63;0.32;;;8.50;99.90;;;;;;5072475;28;20376;-51
2023/01/09 03:01:37;;;;;;;3.80;0.50;;;8.60;99.90;;;;;;5071484;28;20376;-51
2023/01/09 03:04:13;;;;;;;3.70;0.40;;;8.60;99.90;;;;;;5071154;28;20425;-51
2023/01/09 03:07:01;;;;;;;3.40;0.30;;;8.50;99.90;;;;;;5072564;28;20371;-51
2023/01/09 03:09:31;;;;;;;3.50;0.40;;;8.40;99.90;;;;;;5071992;28;20490;-51
2023/01/09 03:12:26;;;;;;;3.80;0.60;;;8.40;99.90;;;;;;5071932;28;20380;-51
2023/01/09 03:14:57;;;;;;;3.78;0.50;;;8.40;99.90;;;;;;5069150;28;20912;-51
2023/01/09 03:17:33;;;;;;;3.60;0.40;;;8.50;99.90;;;;;;5071192;28;20368;-51
2023/01/09 03:20:01;;;;;;;3.80;0.40;;;8.90;99.90;;;;;;5071930;28;20392;-51
2023/01/09 03:22:27;;;;;;;3.65;0.40;;;8.60;99.90;;;;;;5071622;28;20430;-51
2023/01/09 03:24:52;;;;;;;3.70;0.30;;;8.60;1.00;;;;;;5071626;28;20411;-51
2023/01/09 03:27:18;;;;;;;4.20;0.60;;;8.60;1.00;;;;;;5071460;28;20383;-51
2023/01/09 03:29:44;;;;;;;3.50;0.30;;;8.60;1.00;;;;;;5071083;28;20410;-52
2023/01/09 03:32:09;;;;;;;3.70;0.40;;;8.60;1.00;;;;;;5070981;28;20922;-52
2023/01/09 03:34:35;;;;;;;3.97;0.40;;;8.80;1.00;;;;;;5071767;28;20380;-52
2023/01/09 03:37:01;;;;;;;3.50;0.40;;;8.60;1.00;;;;;;5070725;28;20407;-52
2023/01/09 03:39:27;;;;;;;3.40;0.30;;;8.50;99.90;;;;;;5070423;28;20376;-53
2023/01/09 03:41:53;;;;;;;3.50;0.30;;;8.60;99.90;;;;;;5071227;28;20391;-53
2023/01/09 03:44:18;;;;;;;3.50;0.40;;;8.50;99.90;;;;;;5070074;28;20395;-53
2023/01/09 03:46:44;;;;;;;3.40;0.30;;;8.50;99.90;;;;;;5071404;28;20423;-55
2023/01/09 03:49:09;;;;;;;3.40;0.20;;;9.10;1.00;;;;;;5069850;28;20403;-53
2023/01/09 03:51:35;;;;;;;5.80;0.30;;;8.50;1.00;;;;;;5071397;28;20387;-53
2023/01/09 03:54:01;;;;;;;3.70;0.30;;;8.00;1.00;;;;;;5070998;28;20376;-55
2023/01/09 03:56:26;;;;;;;3.50;0.20;;;8.00;1.00;;;;;;5071169;28;20872;-53
2023/01/09 03:58:52;;;;;;;3.40;0.20;;;7.60;20.90;;;;;;5071220;28;20454;-52
2023/01/09 04:01:18;;;;;;;3.40;0.20;;;7.40;99.90;;;;;;5070190;28;20478;-52
2023/01/09 04:03:43;;;;;;;3.90;0.30;;;7.30;1.00;;;;;;5071405;28;20383;-53
2023/01/09 04:06:09;;;;;;;3.40;0.20;;;7.30;1.00;;;;;;5070320;28;20446;-53
2023/01/09 04:08:34;;;;;;;3.40;0.20;;;7.10;99.90;;;;;;5070373;28;20383;-52
2023/01/09 04:11:00;;;;;;;3.30;0.20;;;6.90;99.90;;;;;;5069331;28;20390;-52
2023/01/09 04:13:25;;;;;;;3.30;0.20;;;7.10;99.90;;;;;;5070272;28;20805;-52
2023/01/09 04:15:51;;;;;;;3.47;0.20;;;6.80;1.00;;;;;;5071121;28;20384;-53
2023/01/09 04:18:17;;;;;;;3.30;0.20;;;6.90;99.90;;;;;;5069853;28;20718;-52
2023/01/09 04:20:46;;;;;;;3.30;0.20;;;7.50;99.90;;;;;;5071019;28;20415;-53
2023/01/09 04:23:12;;;;;;;3.80;0.30;;;6.80;99.90;;;;;;5052310;28;20384;-52
2023/01/09 04:25:37;;;;;;;3.50;0.20;;;6.70;99.90;;;;;;5070483;28;20879;-52
2023/01/09 04:28:03;;;;;;;3.50;0.30;;;6.60;99.90;;;;;;5070167;28;20387;-56
2023/01/09 04:30:29;;;;;;;3.30;0.20;;;6.60;99.90;;;;;;5070184;28;20502;-52
2023/01/09 04:32:54;;;;;;;3.30;0.20;;;6.90;99.90;;;;;;5070174;28;20380;-53
2023/01/09 04:35:20;;;;;;;3.90;0.40;;;8.60;99.90;;;;;;5069896;28;20403;-52
2023/01/09 04:37:46;;;;;;;3.40;0.20;;;7.10;99.90;;;;;;5070876;28;20384;-52
2023/01/09 04:40:12;;;;;;;3.50;0.30;;;6.70;99.90;;;;;;5069856;28;20545;-52
2023/01/09 04:42:39;;;;;;;3.30;0.20;;;6.70;99.90;;;;;;5070323;28;20387;-52
2023/01/09 04:45:07;;;;;;;3.40;0.30;;;6.70;99.90;;;;;;5070089;28;20388;-55
2023/01/09 04:47:33;;;;;;;3.60;0.20;;;6.80;99.90;;;;;;5069687;28;20384;-52
2023/01/09 04:49:59;;;;;;;3.50;0.20;;;6.80;1.00;;;;;;5069929;28;20406;-52
2023/01/09 04:52:25;;;;;;;3.70;0.40;;;6.80;1.00;;;;;;5069283;28;20380;-52
2023/01/09 04:54:51;;;;;;;3.40;0.20;;;6.90;1.00;;;;;;5069755;28;20929;-52
2023/01/09 04:57:16;;;;;;;3.40;0.20;;;6.90;1.00;;;;;;5069408;28;20888;-52
2023/01/09 04:59:42;;;;;;;3.90;0.50;;;8.00;99.90;;;;;;5070327;28;20388;-51
2023/01/09 05:02:08;;;;;;;4.05;0.30;;;6.80;1.00;;;;;;5069047;28;20419;-54
2023/01/09 05:04:34;;;;;;;4.75;0.55;;;6.90;99.90;;;;;;5069587;28;20395;-54
2023/01/09 05:06:59;;;;;;;3.50;0.20;;;6.90;1.00;;;;;;5069692;28;20397;-54
2023/01/09 05:09:25;;;;;;;3.45;0.20;;;7.00;99.90;;;;;;5069249;28;20404;-53
2023/01/09 05:11:51;;;;;;;3.60;0.30;;;7.00;99.90;;;;;;5069632;28;20483;-54
2023/01/09 05:14:16;;;;;;;3.50;0.30;;;6.90;99.90;;;;;;5068588;28;20861;-54
2023/01/09 05:16:42;;;;;;;3.80;0.40;;;6.90;1.00;;;;;;5069749;28;20376;-53
2023/01/09 05:19:08;;;;;;;5.00;0.90;;;9.00;1.00;;;;;;5068979;28;20434;-54
2023/01/09 05:21:33;;;;;;;5.40;0.47;;;6.80;1.00;;;;;;5070097;28;20391;-53
2023/01/09 05:23:59;;;;;;;4.20;0.47;;;6.90;1.00;;;;;;5068114;28;20392;-54
2023/01/09 05:26:25;;;;;;;4.40;0.43;;;6.90;99.90;;;;;;5069030;28;20391;-54
2023/01/09 05:28:51;;;;;;;3.93;0.50;;;6.90;99.90;;;;;;5069534;28;20730;-53
2023/01/09 05:31:18;;;;;;;5.60;0.68;;;7.40;1.00;;;;;;5068350;28;20873;-53
2023/01/09 05:33:44;;;;;;;3.47;0.30;;;6.80;1.00;;;;;;5069875;28;20376;-54
2023/01/09 05:36:10;;;;;;;3.87;0.80;;;8.70;1.00;;;;;;5068296;28;20758;-53
2023/01/09 05:38:35;;;;;;;3.90;0.50;;;6.80;99.90;;;;;;5069626;28;20395;-53
2023/01/09 05:41:01;;;;;;;4.80;0.68;;;7.80;99.90;;;;;;5069862;28;20986;-53
2023/01/09 05:43:26;;;;;;;3.80;0.40;;;6.80;99.90;;;;;;5069360;28;20367;-53
2023/01/09 05:45:52;;;;;;;4.30;0.40;;;6.70;99.90;;;;;;5069821;28;20372;-53
2023/01/09 05:48:18;;;;;;;5.20;0.47;;;6.70;99.90;;;;;;5068285;28;20376;-53
2023/01/09 05:50:43;;;;;;;3.70;0.40;;;8.50;99.90;;;;;;5069331;28;20421;-53
2023/01/09 05:53:09;;;;;;;4.53;0.60;;;6.60;1.00;;;;;;5068768;28;20395;-53
2023/01/09 05:55:34;;;;;;;4.80;0.50;;;6.70;1.00;;;;;;5069010;28;20387;-53
2023/01/09 05:58:00;;;;;;;4.00;0.50;;;6.60;1.00;;;;;;5067908;28;20388;-53
2023/01/09 06:00:26;;;;;;;6.07;0.60;;;6.50;1.00;;;;;;5068352;28;20396;-54
2023/01/09 06:02:51;;;;;;;4.07;0.50;;;7.80;99.90;;;;;;5071169;28;20384;-53
2023/01/09 06:05:17;;;;;;;3.90;0.50;;;6.50;99.90;;;;;;5072614;28;20709;-53
2023/01/09 06:07:43;;;;;;;4.00;0.50;;;7.60;99.90;;;;;;5073142;28;20437;-54
2023/01/09 06:10:11;;;;;;;4.20;0.80;;;7.30;99.90;;;;;;5072250;28;20414;-53
2023/01/09 06:12:37;;;;;;;4.00;0.50;;;6.30;99.90;;;;;;5072814;28;20388;-54
2023/01/09 06:15:03;;;;;;;4.10;0.50;;;6.30;47.70;;;;;;5072604;28;20379;-54
2023/01/09 06:17:29;;;;;;;5.05;0.60;;;6.30;1.00;;;;;;5072416;28;20733;-54
2023/01/09 06:19:54;;;;;;;4.20;0.67;;;6.30;1.00;;;;;;5072650;28;20371;-54
2023/01/09 06:22:20;;;;;;;3.80;0.40;;;6.30;1.00;;;;;;5072154;28;20796;-54
2023/01/09 06:24:45;;;;;;;5.80;0.60;;;6.20;1.00;;;;;;5072583;28;20380;-54
2023/01/09 06:27:14;;;;;;;4.15;0.70;;;7.40;35.50;;;;;;5072027;28;20479;-54
2023/01/09 06:29:40;;;;;;;4.00;0.50;;;6.40;99.90;;;;;;5072668;28;20898;-53
2023/01/09 06:32:05;;;;;;;5.90;0.60;;;7.60;1.00;;;;;;5072298;28;20376;-54
2023/01/09 06:34:31;;;;;;;5.28;0.70;;;5.90;1.00;;;;;;5072327;28;20409;-53
2023/01/09 06:36:57;;;;;;;6.30;0.60;;;5.90;1.00;;;;;;5072370;28;20730;-54
2023/01/09 06:39:22;;;;;;;3.90;0.50;;;7.00;1.00;;;;;;5072061;28;20437;-54
2023/01/09 06:41:48;;;;;;;5.73;0.70;;;6.80;99.90;;;;;;5072832;28;20752;-54
2023/01/09 06:44:13;;;;;;;5.80;0.70;;;5.70;99.90;;;;;;5071528;28;20916;-54
2023/01/09 06:46:39;;;;;;;3.72;0.30;;;6.30;99.90;;;;;;5072492;28;20376;-54
2023/01/09 06:49:05;;;;;;;3.50;0.30;;;5.60;1.00;;;;;;5071856;28;20399;-55
2023/01/09 06:51:30;;;;;;;4.50;1.10;;;5.70;1.00;;;;;;5071305;28;20384;-54
2023/01/09 06:53:56;;;;;;;3.93;0.50;;;5.60;99.90;;;;;;5072174;28;20368;-54
2023/01/09 06:56:21;;;;;;;5.85;0.70;;;5.50;99.90;;;;;;5071509;28;20384;-53
2023/01/09 06:58:47;;;;;;;5.43;0.50;;;7.00;99.90;;;;;;5072131;28;20368;-54
2023/01/09 07:01:13;;;;;;;6.20;0.80;;;5.80;1.00;;;;;;5071437;28;20714;-54
2023/01/09 07:03:38;;;;;;;4.00;0.60;;;6.30;1.00;;;;;;5069632;28;20484;-54
2023/01/09 07:06:04;;;;;;;4.90;0.80;;;5.90;1.00;;;;;;5067169;28;21021;-53
2023/01/09 07:08:30;;;;;;;4.03;0.40;;;6.00;99.90;;;;;;5071134;28;20869;-54
2023/01/09 07:10:56;;;;;;;4.80;0.45;;;6.10;1.00;;;;;;5071381;28;20404;-54
2023/01/09 07:13:21;;;;;;;4.40;0.50;;;6.10;1.00;;;;;;5070052;28;20384;-53
2023/01/09 07:15:48;;;;;;;4.20;0.30;;;6.30;1.00;;;;;;5070824;28;20721;-54
2023/01/09 07:18:14;;;;;;;4.22;0.43;;;6.20;99.90;;;;;;5070695;28;20388;-54
2023/01/09 07:20:40;;;;;;;4.50;0.70;;;8.10;99.90;;;;;;5071451;28;20383;-53
2023/01/09 07:23:06;;;;;;;4.30;0.70;;;6.30;99.90;;;;;;5070967;28;20403;-57
2023/01/09 07:25:32;;;;;;;4.35;0.70;;;7.30;99.90;;;;;;5071141;28;20379;-54
2023/01/09 07:27:58;;;;;;;5.20;0.70;;;6.20;96.70;;;;;;5071637;28;20729;-54
2023/01/09 07:30:23;;;;;;;4.40;0.65;;;7.80;99.90;;;;;;5070179;28;20407;-53
2023/01/09 07:32:49;;;;;;;4.50;0.60;;;6.20;99.90;;;;;;5071153;28;20391;-54
2023/01/09 07:35:14;;;;;;;5.50;0.70;;;6.20;99.90;;;;;;5070023;28;20408;-54
2023/01/09 07:37:40;;;;;;;5.30;0.50;;;6.20;1.00;;;;;;5071204;28;20403;-53
2023/01/09 07:40:07;;;;;;;5.55;0.65;;;7.90;1.00;;;;;;5070967;28;20399;-57
2023/01/09 07:42:32;;;;;;;4.53;0.67;;;6.30;1.00;;;;;;5070776;28;20376;-54
2023/01/09 07:44:58;;;;;;;4.80;0.40;;;6.30;99.90;;;;;;5071225;28;20543;-54
2023/01/09 07:47:23;;;;;;;3.60;0.40;;;8.20;99.90;;;;;;5070543;28;20376;-54
2023/01/09 07:49:55;;;;;;;4.63;0.50;;;7.50;1.00;;;;;;5071290;28;20407;-54
2023/01/09 07:52:20;;;;;;;4.15;0.60;;;8.00;99.90;;;;;;5070267;28;20412;-53
2023/01/09 07:54:46;;;;;;;4.10;0.60;;;6.30;1.00;;;;;;5070718;28;21092;-54
2023/01/09 07:57:12;;;;;;;5.70;0.80;;;6.30;1.00;;;;;;5069998;28;20467;-54
2023/01/09 07:59:37;;;;;;;3.90;0.40;;;6.40;99.90;;;;;;5070889;28;20395;-54
2023/01/09 08:02:04;;;;;;;5.63;0.50;;;6.40;99.90;;;;;;5070975;28;20376;-54
2023/01/09 08:04:30;;;;;;;4.80;0.80;;;6.40;99.90;;;;;;5070040;28;20392;-54
2023/01/09 08:06:56;;;;;;;8.00;0.70;;;7.80;99.90;;;;;;5070873;28;20402;-53
2023/01/09 08:09:21;;;;;;;4.25;0.68;;;7.80;99.90;;;;;;5069884;28;20865;-54
2023/01/09 08:11:47;;;;;;;3.70;0.30;;;6.40;99.90;;;;;;5070689;28;20538;-53
2023/01/09 08:14:13;;;;;;;4.60;0.73;;;6.40;99.90;;;;;;5069909;28;20391;-54
2023/01/09 08:16:38;;;;;;;5.10;0.50;;;6.50;99.90;;;;;;5070439;28;20380;-53
2023/01/09 08:19:04;;;;;;;4.60;0.60;;;6.60;1.00;;;;;;5070518;28;20895;-53
2023/01/09 08:21:29;;;;;;;4.90;0.50;;;6.70;1.00;;;;;;5069459;28;21170;-54
2023/01/09 08:23:55;;;;;;;5.30;0.73;;;7.20;1.00;;;;;;5070502;28;20378;-54
2023/01/09 08:26:21;;;;;;;5.10;0.97;;;8.10;1.00;;;;;;5069498;28;20434;-54
2023/01/09 08:28:47;;;;;;;5.40;0.45;;;7.50;1.00;;;;;;5070185;28;20468;-54
2023/01/09 08:31:13;;;;;;;3.85;0.47;;;7.50;99.90;;;;;;5069546;28;20883;-54
2023/01/09 08:33:39;;;;;;;4.10;0.45;;;7.00;99.90;;;;;;5070505;28;20383;-54
2023/01/09 08:36:05;;;;;;;5.10;0.60;;;7.00;99.90;;;;;;5069861;28;20396;-54
2023/01/09 08:38:30;;;;;;;4.80;0.45;;;7.00;99.90;;;;;;5069802;28;20382;-54
2023/01/09 08:40:56;;;;;;;5.10;0.60;;;7.00;99.90;;;;;;5070528;28;20380;-54
2023/01/09 08:49:01;;;;;;;6.22;0.80;;;7.40;99.90;;;;;;5070483;28;20493;-54
2023/01/09 08:51:26;;;;;;;5.30;0.90;;;9.00;99.90;;;;;;5069403;28;20380;-52
2023/01/09 08:53:52;;;;;;;4.00;0.60;;;7.30;99.90;;;;;;5070219;28;20398;-52
2023/01/09 08:56:17;;;;;;;4.57;0.65;;;7.70;99.90;;;;;;5069025;28;20849;-54
2023/01/09 08:58:43;;;;;;;6.23;0.53;;;8.10;1.00;;;;;;5069937;28;20499;-55
2023/01/09 09:01:09;;;;;;;4.30;0.40;;;8.60;1.00;;;;;;5069845;28;20399;-54
2023/01/09 09:03:34;;;;;;;5.83;0.70;;;8.60;99.90;;;;;;5070252;28;20445;-54
2023/01/09 09:06:00;;;;;;;5.13;0.80;;;8.60;99.90;;;;;;5070055;28;20420;-54
2023/01/09 09:08:26;;;;;;;4.60;0.60;;;8.90;99.90;;;;;;5068319;28;20510;-55
2023/01/09 09:10:51;;;;;;;5.40;0.70;;;9.50;99.90;;;;;;5069410;28;20476;-55
2023/01/09 09:13:17;;;;;;;4.30;0.50;;;10.00;91.80;;;;;;5067842;28;20403;-55
2023/01/09 09:15:42;;;;;;;5.50;0.70;;;11.00;1.00;;;;;;5069677;28;20376;-55
2023/01/09 09:18:08;;;;;;;5.30;0.60;;;;;;;;;;5069207;28;20391;-55
2023/01/09 09:20:37;;;;;;;4.50;0.60;;;12.20;1.00;;;;;;5069936;28;20372;-53
2023/01/09 09:23:04;;;;;;;4.30;0.70;;;12.70;1.00;;;;;;5069632;28;20388;-52
2023/01/09 09:25:30;;;;;;;5.90;0.80;;;12.10;1.00;;;;;;5068678;28;20458;-55
2023/01/09 09:27:56;;;;;;;5.20;0.60;;;11.40;1.00;;;;;;5069423;28;20426;-55
2023/01/09 09:30:22;;;;;;;5.40;1.20;;;12.20;1.00;;;;;;5069186;28;20464;-54
2023/01/09 09:32:48;;;;;;;5.03;0.82;;;10.40;1.00;;;;;;5069542;28;20380;-54
2023/01/09 09:35:16;;;;;;;6.68;0.77;;;10.10;1.00;;;;;;5068423;28;20411;-54
2023/01/09 09:37:51;;;;;;;4.90;0.70;;;10.10;1.00;;;;;;5070991;28;20428;-54
2023/01/09 09:40:26;;;;;;;8.65;0.70;;;10.20;1.00;;;;;;5073156;28;20466;-55
2023/01/09 09:46:41;;;;;;;5.00;0.70;;;10.60;1.00;;;;;;5048998;28;20466;-55
2023/01/09 09:49:26;;;;;;;5.80;0.70;;;10.30;1.00;;;;;;5073149;28;20494;-57
2023/01/09 09:52:23;;;;;;;5.00;0.60;;;9.80;1.00;;;;;;5073632;28;20458;-54
2023/01/09 09:54:50;;;;;;;4.53;0.52;;;9.60;1.00;;;;;;5072995;28;20803;-54
2023/01/09 09:57:20;;;;;;;5.90;0.70;;;9.10;1.00;;;;;;5072601;28;20379;-54
2023/01/09 09:59:50;;;;;;;8.60;0.70;;;9.00;1.00;;;;;;5073880;28;20382;-54
2023/01/09 10:03:08;;;;;;;5.90;0.60;;;8.90;1.00;;;;;;5072799;28;20367;-54
2023/01/09 10:05:39;;;;;;;4.90;0.60;;;8.90;1.00;;;;;;5027839;28;20447;-54
2023/01/09 10:08:17;;;;;;;6.03;0.50;;;8.70;1.00;;;;;;5072698;28;20392;-54
2023/01/09 10:10:50;;;;;;;4.20;0.60;;;8.60;1.00;;;;;;5072994;28;20472;-54
2023/01/09 10:16:31;;;;;;;5.80;0.60;;;8.60;1.00;;;;;;5073555;28;20445;-53
2023/01/09 10:19:27;;;;;;;5.68;0.80;;;8.50;1.00;;;;;;5072695;28;20383;-54
2023/01/09 10:22:23;;;;;;;4.00;0.30;;;8.40;1.00;;;;;;5072682;28;20828;-54
2023/01/09 10:25:23;;;;;;;4.67;0.60;;;8.40;1.00;;;;;;5072423;28;20383;-54
2023/01/09 10:27:58;;;;;;;4.30;0.50;;;8.60;1.00;;;;;;5072526;28;20386;-54
2023/01/09 10:30:59;;;;;;;4.70;0.60;;;10.20;1.00;;;;;;5071967;28;20411;-54
2023/01/09 10:33:42;;;;;;;4.97;0.55;;;8.70;1.00;;;;;;5072022;28;20388;-54
2023/01/09 10:36:16;;;;;;;6.50;0.60;;;8.70;1.00;;;;;;5071545;28;20522;-57
2023/01/09 10:38:46;;;;;;;5.97;0.60;;;8.70;1.00;;;;;;5072376;28;20419;-54
2023/01/09 10:41:58;;;;;;;5.10;0.60;;;8.50;1.00;;;;;;5071247;28;20376;-53
2023/01/09 10:44:36;;;;;;;4.25;0.50;;;8.60;1.00;;;;;;5053419;28;20392;-53
2023/01/09 10:47:08;;;;;;;6.40;0.60;;;8.90;1.00;;;;;;5072323;28;20454;-53
2023/01/09 10:49:35;;;;;;;4.88;0.80;;;9.10;1.00;;;;;;5071809;28;20411;-53
2023/01/09 10:52:17;;;;;;;5.20;0.40;;;9.10;1.00;;;;;;5072211;28;20368;-53
2023/01/09 10:54:54;;;;;;;6.60;0.50;;;9.50;1.00;;;;;;5071838;28;20380;-54
2023/01/09 10:57:39;;;;;;;5.03;0.50;;;9.60;1.00;;;;;;5071264;28;20367;-53
2023/01/09 11:00:05;;;;;;;6.32;0.70;;;9.70;1.00;;;;;;5072046;28;20827;-53
2023/01/09 11:02:34;;;;;;;6.57;0.57;;;9.80;1.00;;;;;;5071265;28;20376;-54
2023/01/09 11:05:00;;;;;;;5.60;0.90;;;9.50;1.00;;;;;;5072022;28;20403;-54
2023/01/09 11:07:30;;;;;;;5.93;0.60;;;9.60;1.00;;;;;;5069893;28;20873;-54
2023/01/09 11:09:57;;;;;;;7.25;0.90;;;9.50;1.00;;;;;;5071969;28;20473;-53
2023/01/09 11:12:26;;;;;;;6.60;0.70;;;9.40;1.00;;;;;;5071044;28;20724;-54
2023/01/09 11:14:52;;;;;;;4.40;0.70;;;9.30;1.00;;;;;;5072070;28;20379;-53
2023/01/09 11:17:28;;;;;;;4.70;0.60;;;9.20;1.00;;;;;;5071380;28;20791;-53
2023/01/09 11:20:02;;;;;;;8.10;0.93;;;9.20;1.00;;;;;;5071463;28;20856;-53
2023/01/09 11:22:28;;;;;;;4.60;0.50;;;9.20;1.00;;;;;;5053066;28;21119;-54
2023/01/09 11:25:02;;;;;;;4.00;0.40;;;9.20;1.00;;;;;;5071240;28;20424;-54
2023/01/09 11:27:27;;;;;;;5.85;1.10;;;9.00;1.00;;;;;;5070923;28;21019;-53
2023/01/09 11:30:06;;;;;;;4.53;0.90;;;9.10;1.00;;;;;;5071158;28;20446;-53
2023/01/09 11:32:33;;;;;;;6.00;0.80;;;9.20;1.00;;;;;;5070720;28;20392;-54
2023/01/09 11:34:59;;;;;;;6.27;0.80;;;9.10;1.00;;;;;;5071149;28;20396;-53
2023/01/09 11:37:28;;;;;;;5.82;0.60;;;9.20;1.00;;;;;;5071142;28;20763;-53
2023/01/09 11:39:56;;;;;;;5.10;0.60;;;9.30;1.00;;;;;;5071102;28;20388;-53
2023/01/09 11:45:26;;;;;;;5.13;0.80;;;9.30;1.00;;;;;;5070570;28;20434;-53
2023/01/09 11:47:51;;;;;;;6.78;0.85;;;9.50;1.00;;;;;;5070741;28;20489;-54
2023/01/09 11:50:26;;;;;;;4.47;0.60;;;9.50;1.00;;;;;;5070442;28;20876;-54
2023/01/09 11:53:16;;;;;;;4.80;0.70;;;9.60;1.00;;;;;;5070846;28;20402;-54
2023/01/09 11:55:43;;;;;;;3.90;0.40;;;9.60;1.00;;;;;;5070709;28;20383;-54
2023/01/09 11:58:12;;;;;;;3.90;0.30;;;9.30;1.00;;;;;;5052320;28;20486;-56
2023/01/09 12:01:18;;;;;;;6.70;0.60;;;9.10;1.00;;;;;;5069563;28;20872;-54
2023/01/09 12:03:57;;;;;;;5.40;0.60;;;9.10;1.00;;;;;;5070342;28;20868;-54
2023/01/09 12:06:52;;;;;;;7.90;0.60;;;9.40;1.00;;;;;;5070081;28;20384;-53
2023/01/09 12:09:55;;;;;;;6.20;0.60;;;9.20;1.00;;;;;;5033817;28;20411;-53
2023/01/09 12:12:49;;;;;;;8.50;1.08;;;9.20;1.00;;;;;;5069780;28;20378;-54
2023/01/09 12:15:33;;;;;;;4.90;0.50;;;9.20;1.00;;;;;;5068796;28;20449;-53
2023/01/09 12:18:05;;;;;;;6.40;0.40;;;9.40;1.00;;;;;;5067192;28;20873;-53
2023/01/09 12:20:50;;;;;;;4.88;0.60;;;9.10;1.00;;;;;;5070474;28;20385;-53
2023/01/09 12:23:37;;;;;;;5.32;0.90;;;8.90;1.00;;;;;;5071052;28;20399;-53
2023/01/09 12:26:11;;;;;;;5.10;0.80;;;8.80;1.00;;;;;;5069973;28;20415;-54
2023/01/09 12:29:14;;;;;;;6.13;0.60;;;8.80;1.00;;;;;;5073036;28;20407;-53
2023/01/09 12:31:58;;;;;;;4.18;0.65;;;8.70;99.90;;;;;;5080598;28;20394;-54
2023/01/09 12:35:12;;;;;;;3.83;0.32;;;8.60;99.90;;;;;;5066020;28;20408;-54
2023/01/09 12:37:43;;;;;;;4.60;0.50;;;8.40;99.90;;;;;;5030226;28;20434;-53
2023/01/09 12:40:22;;;;;;;4.30;0.50;;;9.80;99.90;;;;;;5066963;28;20572;-57
2023/01/09 12:43:01;;;;;;;4.70;0.70;;;8.20;1.00;;;;;;5069642;28;20841;-53
2023/01/09 12:45:41;;;;;;;4.95;0.50;;;8.20;99.90;;;;;;5066755;28;20376;-54
2023/01/09 12:48:33;;;;;;;6.20;0.60;;;8.00;1.00;;;;;;5048724;28;20804;-54
2023/01/09 12:51:13;;;;;;;5.43;0.50;;;8.00;99.90;;;;;;5060495;28;20415;-54
2023/01/09 12:53:54;;;;;;;5.70;0.40;;;8.10;1.00;;;;;;5064041;28;20435;-53
2023/01/09 12:56:24;;;;;;;5.20;0.50;;;8.30;1.00;;;;;;5067403;28;20390;-53
2023/01/09 12:58:57;;;;;;;4.70;0.50;;;8.70;36.20;;;;;;5066975;28;20441;-53
2023/01/09 13:01:38;;;;;;;4.88;0.75;;;8.70;1.00;;;;;;5066525;28;20397;-54
2023/01/09 13:04:16;;;;;;;5.00;0.60;;;8.70;99.90;;;;;;5068508;28;20790;-53
2023/01/09 13:06:46;;;;;;;4.57;0.50;;;8.70;54.90;;;;;;5069045;28;20419;-54
2023/01/09 13:09:22;;;;;;;4.00;0.30;;;8.70;22.60;;;;;;5066211;28;20403;-57
2023/01/09 13:11:59;;;;;;;6.78;0.57;;;10.60;99.90;;;;;;5069557;28;20471;-54
2023/01/09 13:14:47;;;;;;;4.20;0.40;;;8.90;7.40;;;;;;5068611;28;20463;-54
2023/01/09 13:17:26;;;;;;;3.83;0.38;;;9.10;1.00;;;;;;5069624;28;20372;-56
2023/01/09 13:19:52;;;;;;;4.00;0.40;;;9.00;1.00;;;;;;5069907;28;20429;-54
2023/01/09 13:22:19;;;;;;;4.10;0.40;;;9.10;1.00;;;;;;5068707;28;20398;-53
2023/01/09 13:24:56;;;;;;;5.90;0.60;;;9.00;1.00;;;;;;5069801;28;20910;-54
2023/01/09 13:27:24;;;;;;;4.20;0.40;;;8.80;99.90;;;;;;5069237;28;20383;-53
2023/01/09 13:29:58;;;;;;;4.40;0.73;;;8.90;99.90;;;;;;5069511;28;20433;-53
2023/01/09 13:32:34;;;;;;;4.50;0.40;;;9.00;99.90;;;;;;5068818;28;20388;-54
2023/01/09 13:35:01;;;;;;;3.90;0.50;;;8.90;99.90;;;;;;5068797;28;20396;-54
2023/01/09 13:37:30;;;;;;;4.10;0.40;;;8.90;99.90;;;;;;5068657;28;20425;-53
2023/01/09 13:40:19;;;;;;;3.80;0.30;;;9.00;99.90;;;;;;5066543;28;21980;-53